Time;durP1;ratioP1;P1;durP2;ratioP2;P2;SDS_P1;SDS_P2;PMS_P1;PMS_P2;Temp;Humidity;BMP_temperature;BMP_pressure;BME280_temperature;BME280_humidity;BME280_pressure;Samples;Min_cycle;Max_cycle;Signal;HPM_P1;HPM_P2
2021/03/02 00:00:00;;;;;;;48.22;27.75;;;3.30;99.90;;;;;;4970465;28;20102;-76
2021/03/02 00:02:28;;;;;;;54.72;28.13;;;3.30;99.90;;;;;;4964182;28;20507;-76
2021/03/02 00:04:56;;;;;;;50.92;28.90;;;3.20;99.90;;;;;;4989108;28;20054;-76
2021/03/02 00:07:22;;;;;;;51.83;27.30;;;3.30;99.90;;;;;;4990170;28;20112;-76
2021/03/02 00:09:49;;;;;;;49.67;27.27;;;3.30;99.90;;;;;;4954253;28;20078;-77
2021/03/02 00:12:26;;;;;;;49.00;27.40;;;3.20;99.90;;;;;;4970580;28;20121;-77
2021/03/02 00:14:53;;;;;;;47.70;27.35;;;3.10;99.90;;;;;;4985641;28;20145;-77
2021/03/02 00:17:28;;;;;;;56.05;31.13;;;3.20;99.90;;;;;;4970246;28;20159;-77
2021/03/02 00:20:09;;;;;;;60.58;29.00;;;3.20;99.90;;;;;;4993891;28;20062;-77
2021/03/02 00:22:57;;;;;;;60.60;31.52;;;3.10;99.90;;;;;;4992963;28;20153;-77
2021/03/02 00:25:39;;;;;;;61.08;30.35;;;3.00;99.90;;;;;;4992954;28;20669;-76
2021/03/02 00:28:09;;;;;;;59.67;29.38;;;2.90;99.90;;;;;;4987038;28;20462;-77
2021/03/02 00:30:37;;;;;;;68.78;30.40;;;2.70;99.90;;;;;;4989442;28;20050;-77
2021/03/02 00:33:05;;;;;;;62.30;31.50;;;2.70;99.90;;;;;;4989630;28;20538;-76
2021/03/02 00:35:32;;;;;;;61.80;30.25;;;2.70;99.90;;;;;;4988605;28;20078;-76
2021/03/02 00:37:59;;;;;;;63.72;30.13;;;2.60;99.90;;;;;;4990400;28;20054;-76
2021/03/02 00:40:25;;;;;;;51.65;27.35;;;2.50;99.90;;;;;;4985687;28;20054;-77
2021/03/02 00:42:51;;;;;;;54.28;27.67;;;2.70;99.90;;;;;;4991769;28;20125;-77
2021/03/02 00:45:20;;;;;;;58.88;28.95;;;2.80;99.90;;;;;;4973028;28;20054;-77
2021/03/02 00:47:49;;;;;;;62.65;27.98;;;2.80;99.90;;;;;;4957980;28;20046;-77
2021/03/02 00:50:16;;;;;;;60.20;29.17;;;2.70;99.90;;;;;;4988254;28;20048;-76
2021/03/02 00:52:43;;;;;;;54.45;26.63;;;2.70;99.90;;;;;;4972902;28;20602;-76
2021/03/02 00:55:10;;;;;;;52.05;27.50;;;2.80;99.90;;;;;;4989230;28;20133;-77
2021/03/02 00:57:37;;;;;;;61.05;27.65;;;2.80;99.90;;;;;;4990343;28;20061;-77
2021/03/02 01:00:07;;;;;;;63.20;29.60;;;2.80;99.90;;;;;;4972762;28;20089;-77
2021/03/02 01:02:35;;;;;;;59.33;27.90;;;2.80;99.90;;;;;;4972361;28;20396;-76
2021/03/02 01:05:07;;;;;;;59.40;28.80;;;2.60;99.90;;;;;;4956137;28;20046;-75
2021/03/02 01:07:34;;;;;;;66.53;29.98;;;2.60;99.90;;;;;;4988689;28;20050;-77
2021/03/02 01:10:02;;;;;;;54.78;27.00;;;2.50;99.90;;;;;;4969881;28;20571;-76
2021/03/02 01:12:29;;;;;;;54.72;25.45;;;2.60;99.90;;;;;;4985961;28;20050;-77
2021/03/02 01:15:00;;;;;;;47.25;22.55;;;2.70;99.90;;;;;;4973359;28;20066;-77
2021/03/02 01:17:27;;;;;;;52.70;24.17;;;2.80;99.90;;;;;;4972132;28;20078;-77
2021/03/02 01:19:53;;;;;;;48.25;25.05;;;2.80;99.90;;;;;;4972568;28;20058;-77
2021/03/02 01:22:20;;;;;;;42.65;23.42;;;2.80;99.90;;;;;;4973517;28;20105;-77
2021/03/02 01:24:46;;;;;;;45.95;24.58;;;2.90;99.90;;;;;;4973496;28;20050;-77
2021/03/02 01:27:13;;;;;;;48.25;23.33;;;2.90;99.90;;;;;;4954505;28;20042;-75
2021/03/02 01:29:39;;;;;;;48.75;22.77;;;2.90;99.90;;;;;;4972117;28;20131;-76
2021/03/02 01:32:06;;;;;;;48.13;23.73;;;3.00;99.90;;;;;;4971661;28;20495;-76
2021/03/02 01:34:33;;;;;;;46.17;22.17;;;3.00;99.90;;;;;;4971911;28;20569;-77
2021/03/02 01:37:00;;;;;;;44.38;23.65;;;3.00;99.90;;;;;;4971796;28;20089;-77
2021/03/02 01:39:29;;;;;;;41.70;21.05;;;3.00;99.90;;;;;;4997986;28;20064;-76
2021/03/02 01:41:56;;;;;;;49.55;24.10;;;3.00;99.90;;;;;;4979380;28;20077;-76
2021/03/02 01:44:24;;;;;;;45.60;23.42;;;2.90;99.90;;;;;;4971155;28;20506;-76
2021/03/02 01:46:51;;;;;;;45.55;23.70;;;2.80;99.90;;;;;;4987923;28;20085;-75
2021/03/02 01:49:18;;;;;;;43.63;22.98;;;2.80;99.90;;;;;;4955062;28;20050;-76
2021/03/02 01:51:46;;;;;;;46.03;23.90;;;3.00;99.90;;;;;;4971332;28;20137;-76
2021/03/02 01:54:13;;;;;;;49.05;24.13;;;2.90;99.90;;;;;;4991278;28;20045;-77
2021/03/02 01:56:41;;;;;;;51.25;26.33;;;2.80;99.90;;;;;;4980202;28;20038;-76
2021/03/02 01:59:08;;;;;;;55.30;27.30;;;2.70;99.90;;;;;;4988315;28;20046;-76
2021/03/02 02:01:35;;;;;;;59.33;27.85;;;2.60;99.90;;;;;;4955110;28;20137;-76
2021/03/02 02:04:23;;;;;;;60.58;27.77;;;2.40;99.90;;;;;;4955494;28;20042;-76
2021/03/02 02:06:58;;;;;;;61.25;27.58;;;2.40;99.90;;;;;;4970715;28;20030;-76
2021/03/02 02:10:01;;;;;;;53.33;28.00;;;2.30;99.90;;;;;;4972021;28;20128;-77
2021/03/02 02:12:41;;;;;;;47.90;24.13;;;2.30;99.90;;;;;;4970764;28;20145;-77
2021/03/02 02:15:14;;;;;;;54.58;26.60;;;2.50;99.90;;;;;;4985381;28;20073;-76
2021/03/02 02:17:57;;;;;;;57.72;25.90;;;2.40;99.90;;;;;;4970856;28;20079;-76
2021/03/02 02:20:48;;;;;;;66.85;27.92;;;2.40;99.90;;;;;;4988531;28;20134;-77
2021/03/02 02:23:29;;;;;;;59.33;29.08;;;2.40;99.90;;;;;;4983495;28;20274;-77
2021/03/02 02:26:21;;;;;;;57.58;27.05;;;2.30;99.90;;;;;;4991949;28;20054;-76
2021/03/02 02:28:49;;;;;;;61.35;27.50;;;2.20;99.90;;;;;;4991793;28;20054;-76
2021/03/02 02:31:18;;;;;;;62.65;29.55;;;2.20;99.90;;;;;;4990118;28;20064;-76
2021/03/02 02:33:48;;;;;;;68.60;29.52;;;2.10;99.90;;;;;;4954027;28;20081;-78
2021/03/02 02:36:17;;;;;;;62.67;30.10;;;2.10;99.90;;;;;;4969550;28;20054;-76
2021/03/02 02:38:49;;;;;;;74.70;30.92;;;2.00;99.90;;;;;;4974516;28;20050;-75
2021/03/02 02:41:18;;;;;;;77.32;32.75;;;2.00;99.90;;;;;;4971283;28;20064;-77
2021/03/02 02:43:45;;;;;;;70.53;31.70;;;2.10;99.90;;;;;;4987181;28;20050;-76
2021/03/02 02:46:12;;;;;;;73.03;29.98;;;2.10;99.90;;;;;;4990615;28;20158;-76
2021/03/02 02:48:39;;;;;;;76.15;32.38;;;2.00;99.90;;;;;;4954209;28;20077;-76
2021/03/02 02:51:05;;;;;;;75.53;31.35;;;2.00;99.90;;;;;;4989423;28;20478;-76
2021/03/02 02:53:32;;;;;;;80.30;31.58;;;2.00;99.90;;;;;;4996589;28;20041;-76
2021/03/02 02:56:01;;;;;;;82.55;32.40;;;2.00;99.90;;;;;;4983186;28;20067;-77
2021/03/02 02:58:36;;;;;;;75.25;31.73;;;2.00;99.90;;;;;;4970916;28;20053;-76
2021/03/02 03:01:04;;;;;;;81.93;32.83;;;2.00;99.90;;;;;;4987302;28;20069;-77
2021/03/02 03:03:35;;;;;;;86.80;33.30;;;1.90;99.90;;;;;;4984241;28;20519;-77
2021/03/02 03:06:07;;;;;;;74.18;29.38;;;1.90;99.90;;;;;;4986347;28;20093;-77
2021/03/02 03:08:34;;;;;;;71.35;29.63;;;1.90;99.90;;;;;;4983695;28;20062;-77
2021/03/02 03:11:03;;;;;;;71.72;29.05;;;1.90;99.90;;;;;;4980149;28;20085;-76
2021/03/02 03:13:40;;;;;;;77.22;30.63;;;1.90;99.90;;;;;;4985396;28;20064;-77
2021/03/02 03:16:09;;;;;;;77.35;30.13;;;1.90;99.90;;;;;;4987616;28;20065;-76
2021/03/02 03:18:55;;;;;;;70.28;28.75;;;1.90;99.90;;;;;;4985864;28;20043;-78
2021/03/02 03:21:22;;;;;;;74.03;32.03;;;1.90;99.90;;;;;;4988788;28;20050;-75
2021/03/02 03:23:50;;;;;;;78.07;30.35;;;1.90;99.90;;;;;;5004551;28;20499;-76
2021/03/02 03:26:20;;;;;;;79.25;32.28;;;1.90;99.90;;;;;;4972658;28;20064;-77
2021/03/02 03:28:50;;;;;;;75.80;30.67;;;1.80;99.90;;;;;;4981795;28;20129;-76
2021/03/02 03:31:17;;;;;;;90.10;31.80;;;1.80;99.90;;;;;;4957638;28;20221;-77
2021/03/02 03:33:44;;;;;;;88.47;32.00;;;1.80;99.90;;;;;;4983241;28;20063;-77
2021/03/02 03:36:11;;;;;;;81.55;33.20;;;1.80;99.90;;;;;;4966661;28;20050;-77
2021/03/02 03:38:38;;;;;;;79.90;31.55;;;1.80;99.90;;;;;;4987948;28;20042;-77
2021/03/02 03:41:05;;;;;;;82.40;31.77;;;1.70;99.90;;;;;;4975612;28;20645;-76
2021/03/02 03:43:31;;;;;;;88.57;31.77;;;1.70;99.90;;;;;;4986671;28;20076;-77
2021/03/02 03:45:58;;;;;;;83.78;32.90;;;1.70;99.90;;;;;;4954809;28;20138;-76
2021/03/02 03:48:25;;;;;;;91.50;33.95;;;1.60;99.90;;;;;;4986935;28;20046;-77
2021/03/02 03:50:51;;;;;;;91.32;32.85;;;1.60;99.90;;;;;;4989377;28;20049;-77
2021/03/02 03:53:20;;;;;;;93.78;34.03;;;1.60;99.90;;;;;;4990402;28;20046;-76
2021/03/02 03:55:50;;;;;;;88.50;32.28;;;1.60;99.90;;;;;;4973885;28;20038;-77
2021/03/02 03:58:23;;;;;;;87.97;33.85;;;1.50;99.90;;;;;;4986308;28;20057;-76
2021/03/02 04:00:51;;;;;;;80.72;32.58;;;1.60;99.90;;;;;;4982760;28;20054;-76
2021/03/02 04:03:23;;;;;;;86.22;33.40;;;1.50;99.90;;;;;;4986533;28;20061;-76
2021/03/02 04:05:50;;;;;;;87.82;34.05;;;1.60;99.90;;;;;;4971755;28;20105;-76
2021/03/02 04:08:17;;;;;;;82.18;31.95;;;1.50;99.90;;;;;;4990801;28;20609;-76
2021/03/02 04:10:46;;;;;;;81.90;33.38;;;1.40;99.90;;;;;;4990225;28;20073;-77
2021/03/02 04:13:14;;;;;;;96.20;33.47;;;1.30;99.90;;;;;;4989219;28;20050;-78
2021/03/02 04:15:41;;;;;;;90.22;33.08;;;1.30;99.90;;;;;;4988745;28;20133;-76
2021/03/02 04:18:14;;;;;;;103.88;35.40;;;1.20;99.90;;;;;;4956808;28;20046;-77
2021/03/02 04:20:41;;;;;;;101.18;36.67;;;1.20;99.90;;;;;;4989706;28;20049;-77
2021/03/02 04:23:09;;;;;;;95.40;34.25;;;1.10;99.90;;;;;;5007231;28;20128;-76
2021/03/02 04:25:36;;;;;;;100.07;33.80;;;1.20;99.90;;;;;;5008298;28;20371;-77
2021/03/02 04:28:03;;;;;;;103.95;36.30;;;1.20;99.90;;;;;;4993785;28;20058;-77
2021/03/02 04:30:31;;;;;;;108.55;35.92;;;1.10;99.90;;;;;;4989053;28;20049;-77
2021/03/02 04:33:00;;;;;;;109.40;34.72;;;1.00;99.90;;;;;;4972867;28;20503;-77
2021/03/02 04:35:26;;;;;;;116.90;34.63;;;0.90;99.90;;;;;;4988083;28;20226;-77
2021/03/02 04:37:53;;;;;;;112.30;36.92;;;0.80;99.90;;;;;;4986309;28;20056;-76
2021/03/02 04:40:20;;;;;;;105.40;35.97;;;0.70;99.90;;;;;;4986367;28;20039;-77
2021/03/02 04:42:46;;;;;;;126.03;36.80;;;0.70;99.90;;;;;;4955145;28;20048;-77
2021/03/02 04:45:14;;;;;;;99.88;34.10;;;0.80;99.90;;;;;;4987772;28;20054;-77
2021/03/02 04:47:43;;;;;;;118.50;36.72;;;0.70;99.90;;;;;;4968409;28;20054;-77
2021/03/02 04:50:10;;;;;;;75.82;27.73;;;0.80;99.90;;;;;;4969437;28;20061;-77
2021/03/02 04:52:37;;;;;;;74.15;30.45;;;0.70;99.90;;;;;;4980932;28;20490;-77
2021/03/02 04:55:05;;;;;;;85.85;28.58;;;0.60;99.90;;;;;;4992612;28;20494;-78
2021/03/02 04:57:31;;;;;;;84.15;32.15;;;0.70;99.90;;;;;;4971632;28;20560;-78
2021/03/02 04:59:59;;;;;;;90.78;35.05;;;0.70;99.90;;;;;;4972519;28;20054;-78
2021/03/02 05:02:25;;;;;;;83.72;31.92;;;0.70;99.90;;;;;;4975924;28;20050;-77
2021/03/02 05:04:52;;;;;;;89.70;33.05;;;0.60;99.90;;;;;;4972557;28;20054;-77
2021/03/02 05:07:18;;;;;;;87.78;37.08;;;0.70;99.90;;;;;;4970973;28;20058;-77
2021/03/02 05:09:44;;;;;;;113.63;50.83;;;0.70;99.90;;;;;;4988022;28;20046;-77
2021/03/02 05:12:10;;;;;;;136.75;58.97;;;0.80;99.90;;;;;;4970926;28;20053;-76
2021/03/02 05:14:37;;;;;;;110.55;44.72;;;0.80;99.90;;;;;;4955320;28;20050;-77
2021/03/02 05:17:03;;;;;;;86.82;35.53;;;0.80;99.90;;;;;;4967853;28;20171;-77
2021/03/02 05:19:31;;;;;;;88.88;30.95;;;0.70;99.90;;;;;;4967976;28;20045;-75
2021/03/02 05:21:58;;;;;;;94.88;32.10;;;0.60;99.90;;;;;;4990214;28;20235;-76
2021/03/02 05:24:24;;;;;;;91.78;32.72;;;0.60;99.90;;;;;;4991197;28;20050;-76
2021/03/02 05:26:51;;;;;;;99.70;35.35;;;0.50;99.90;;;;;;4990598;28;20434;-77
2021/03/02 05:29:18;;;;;;;99.65;31.50;;;0.30;99.90;;;;;;4970666;28;20056;-76
2021/03/02 05:31:44;;;;;;;98.45;32.72;;;0.30;99.90;;;;;;4986897;28;20161;-76
2021/03/02 05:34:12;;;;;;;78.35;27.48;;;0.30;99.90;;;;;;4985480;28;20163;-75
2021/03/02 05:36:38;;;;;;;85.05;30.00;;;0.20;99.90;;;;;;4968800;28;20533;-75
2021/03/02 05:39:05;;;;;;;91.45;31.90;;;0.10;99.90;;;;;;5012755;28;20698;-76
2021/03/02 05:41:34;;;;;;;84.43;30.55;;;0.00;99.90;;;;;;4991234;28;20202;-76
2021/03/02 05:44:01;;;;;;;105.10;33.80;;;0.10;99.90;;;;;;5002421;28;20050;-76
2021/03/02 05:46:33;;;;;;;88.00;28.30;;;-0.10;99.90;;;;;;4986819;28;20058;-78
2021/03/02 05:49:00;;;;;;;76.47;28.75;;;0.10;99.90;;;;;;4971994;28;20058;-78
2021/03/02 05:51:26;;;;;;;86.47;29.10;;;-0.10;99.90;;;;;;4987481;28;20698;-77
2021/03/02 05:53:53;;;;;;;90.43;29.50;;;0.10;99.90;;;;;;4987034;28;20145;-78
2021/03/02 05:56:19;;;;;;;82.50;27.83;;;0.10;99.90;;;;;;4971032;28;20050;-78
2021/03/02 05:58:46;;;;;;;91.13;29.60;;;0.30;99.90;;;;;;4988997;28;20068;-77
2021/03/02 06:01:12;;;;;;;93.95;29.00;;;0.20;99.90;;;;;;4988015;28;20745;-77
2021/03/02 06:03:38;;;;;;;84.88;27.55;;;0.30;99.90;;;;;;4999850;28;20050;-77
2021/03/02 06:06:05;;;;;;;98.10;32.22;;;0.30;99.90;;;;;;4983242;28;20624;-77
2021/03/02 06:08:33;;;;;;;77.78;26.88;;;0.30;99.90;;;;;;4958734;28;20042;-78
2021/03/02 06:11:32;;;;;;;82.35;25.35;;;0.20;99.90;;;;;;4961598;28;20046;-76
2021/03/02 06:14:19;;;;;;;85.55;26.65;;;0.10;99.90;;;;;;4969737;28;20038;-78
2021/03/02 06:16:55;;;;;;;75.95;26.88;;;0.00;99.90;;;;;;4956048;28;20057;-77
2021/03/02 06:19:46;;;;;;;78.63;28.52;;;0.00;99.90;;;;;;4993538;28;20061;-77
2021/03/02 06:22:31;;;;;;;77.97;27.52;;;0.10;99.90;;;;;;5009349;28;20042;-77
2021/03/02 06:24:58;;;;;;;69.13;26.02;;;0.20;99.90;;;;;;4969368;28;20141;-77
2021/03/02 06:27:25;;;;;;;80.20;25.60;;;0.20;99.90;;;;;;4969801;28;20478;-77
2021/03/02 06:30:15;;;;;;;78.60;28.90;;;0.20;99.90;;;;;;4966737;28;20488;-77
2021/03/02 06:32:49;;;;;;;75.80;27.33;;;0.20;99.90;;;;;;4983286;28;20055;-77
2021/03/02 06:35:37;;;;;;;77.60;29.42;;;0.20;99.90;;;;;;4967620;28;20063;-77
2021/03/02 06:38:05;;;;;;;79.80;28.00;;;0.30;99.90;;;;;;4976370;28;20089;-77
2021/03/02 06:40:38;;;;;;;66.03;25.38;;;0.50;99.90;;;;;;4968258;28;20046;-77
2021/03/02 06:43:06;;;;;;;78.97;27.30;;;0.60;99.90;;;;;;4986279;28;20735;-77
2021/03/02 06:45:33;;;;;;;61.08;24.55;;;0.70;99.90;;;;;;5002744;28;20664;-77
2021/03/02 06:48:04;;;;;;;65.80;22.90;;;0.80;99.90;;;;;;4970268;28;20038;-77
2021/03/02 06:50:37;;;;;;;47.15;20.02;;;0.90;99.90;;;;;;4985964;28;20065;-77
2021/03/02 06:53:09;;;;;;;59.58;23.65;;;0.90;99.90;;;;;;4974965;28;20054;-77
2021/03/02 06:55:37;;;;;;;58.17;22.35;;;1.00;99.90;;;;;;4986620;28;20112;-78
2021/03/02 06:58:17;;;;;;;83.35;35.78;;;1.10;99.90;;;;;;4987908;28;20208;-78
2021/03/02 07:00:56;;;;;;;97.15;40.30;;;1.20;99.90;;;;;;4967442;28;20043;-78
2021/03/02 07:03:26;;;;;;;92.20;38.00;;;1.30;99.90;;;;;;4981072;28;20046;-77
2021/03/02 07:05:53;;;;;;;86.45;39.03;;;1.30;99.90;;;;;;4969852;28;20038;-77
2021/03/02 07:08:20;;;;;;;79.93;36.65;;;1.40;99.90;;;;;;4974195;28;20522;-77
2021/03/02 07:10:50;;;;;;;72.93;31.55;;;1.50;99.90;;;;;;4994463;28;20514;-77
2021/03/02 07:13:18;;;;;;;76.50;36.42;;;1.70;99.90;;;;;;5000588;28;20060;-76
2021/03/02 07:15:46;;;;;;;66.18;31.77;;;1.90;99.90;;;;;;4963448;28;20054;-77
2021/03/02 07:18:17;;;;;;;52.28;26.25;;;2.00;99.90;;;;;;4969901;28;21762;-77
2021/03/02 07:20:50;;;;;;;49.80;24.33;;;2.10;99.90;;;;;;4974124;28;20104;-77
2021/03/02 07:23:21;;;;;;;43.83;24.15;;;2.20;99.90;;;;;;4952673;28;20060;-77
2021/03/02 07:25:49;;;;;;;47.65;23.23;;;2.30;99.90;;;;;;4972279;28;20403;-75
2021/03/02 07:28:26;;;;;;;50.25;26.10;;;2.30;99.90;;;;;;4973027;28;20081;-77
2021/03/02 07:30:54;;;;;;;52.22;27.92;;;2.40;99.90;;;;;;5007661;28;20046;-78
2021/03/02 07:33:22;;;;;;;33.83;19.42;;;2.60;99.90;;;;;;4991579;28;20085;-77
2021/03/02 07:35:55;;;;;;;47.08;25.17;;;2.70;99.90;;;;;;5006327;28;20062;-77
2021/03/02 07:38:22;;;;;;;24.35;18.48;;;2.80;99.90;;;;;;4990612;28;20795;-78
2021/03/02 07:40:51;;;;;;;25.33;15.93;;;3.00;99.90;;;;;;4961229;28;20057;-76
2021/03/02 07:43:37;;;;;;;23.75;16.92;;;3.10;99.90;;;;;;4960996;28;20137;-77
2021/03/02 07:46:26;;;;;;;23.55;15.90;;;3.40;99.90;;;;;;4989662;28;20435;-77
2021/03/02 07:48:52;;;;;;;21.00;16.23;;;3.60;99.90;;;;;;4974384;28;20073;-77
2021/03/02 07:51:24;;;;;;;18.90;14.98;;;3.80;99.90;;;;;;4990975;28;20073;-77
2021/03/02 07:54:12;;;;;;;17.85;15.90;;;4.00;99.90;;;;;;4989811;28;20055;-76
2021/03/02 07:56:38;;;;;;;20.83;16.90;;;4.10;99.90;;;;;;4973239;28;20479;-76
2021/03/02 07:59:04;;;;;;;22.65;16.85;;;4.20;99.90;;;;;;4989319;28;20058;-76
2021/03/02 08:01:31;;;;;;;19.08;17.17;;;4.40;99.90;;;;;;4989519;28;20061;-76
2021/03/02 08:04:16;;;;;;;18.67;16.70;;;4.50;99.90;;;;;;4973677;28;20054;-76
2021/03/02 08:06:49;;;;;;;20.83;18.80;;;4.70;99.90;;;;;;4986822;28;20061;-76
2021/03/02 08:09:25;;;;;;;21.20;18.98;;;4.90;99.90;;;;;;4988704;28;20050;-76
2021/03/02 08:11:55;;;;;;;20.30;18.10;;;5.00;99.90;;;;;;4991848;28;20430;-76
2021/03/02 08:14:21;;;;;;;19.52;17.75;;;5.30;99.90;;;;;;4988904;28;20046;-77
2021/03/02 08:17:05;;;;;;;21.52;19.30;;;5.40;99.90;;;;;;4982558;28;20050;-76
2021/03/02 08:19:44;;;;;;;19.33;17.65;;;5.60;99.90;;;;;;4986559;28;20045;-77
2021/03/02 08:22:17;;;;;;;19.80;17.98;;;5.70;99.90;;;;;;5007347;28;20494;-77
2021/03/02 08:24:51;;;;;;;19.10;17.30;;;5.80;99.90;;;;;;5002831;28;20145;-75
2021/03/02 08:27:39;;;;;;;20.37;18.50;;;6.10;99.90;;;;;;4971982;28;20711;-76
2021/03/02 08:30:11;;;;;;;21.02;19.13;;;6.50;99.90;;;;;;4988952;28;20156;-76
2021/03/02 08:32:38;;;;;;;21.88;19.60;;;6.70;99.90;;;;;;4998929;28;20064;-75
2021/03/02 08:35:11;;;;;;;21.13;19.15;;;6.90;99.90;;;;;;4983731;28;20054;-74
2021/03/02 08:37:49;;;;;;;20.75;19.00;;;7.20;99.90;;;;;;4987578;28;20612;-75
2021/03/02 08:40:17;;;;;;;20.60;18.80;;;7.40;99.90;;;;;;4970949;28;20515;-75
2021/03/02 08:43:03;;;;;;;21.83;20.02;;;7.50;99.90;;;;;;5003293;28;20053;-74
2021/03/02 08:45:33;;;;;;;21.50;19.52;;;7.80;99.90;;;;;;4987854;28;20057;-76
2021/03/02 08:48:21;;;;;;;22.08;20.25;;;7.90;99.90;;;;;;4988108;28;20058;-74
2021/03/02 08:50:57;;;;;;;21.00;19.50;;;8.20;99.90;;;;;;4970825;28;20054;-75
2021/03/02 08:53:33;;;;;;;22.02;20.23;;;8.50;99.90;;;;;;4987315;28;20557;-75
2021/03/02 08:56:23;;;;;;;21.95;20.13;;;8.70;99.90;;;;;;4966748;28;20072;-75
2021/03/02 08:58:55;;;;;;;21.48;19.60;;;8.70;99.90;;;;;;4984688;28;20051;-76
2021/03/02 09:01:21;;;;;;;20.23;18.60;;;8.80;99.90;;;;;;4998816;28;20076;-76
2021/03/02 09:03:48;;;;;;;20.00;18.50;;;9.10;99.90;;;;;;4986396;28;20054;-75
2021/03/02 09:06:21;;;;;;;20.50;19.10;;;9.10;99.90;;;;;;5003056;28;20060;-75
2021/03/02 09:09:06;;;;;;;23.92;21.45;;;9.30;99.90;;;;;;4986996;28;20058;-75
2021/03/02 09:11:41;;;;;;;20.48;18.95;;;9.30;99.90;;;;;;4999939;28;20047;-76
2021/03/02 09:14:25;;;;;;;22.73;20.85;;;9.40;99.90;;;;;;4987243;28;20184;-77
2021/03/02 09:16:55;;;;;;;20.98;19.35;;;9.40;99.90;;;;;;4986860;28;20462;-76
2021/03/02 09:19:32;;;;;;;22.48;20.42;;;9.60;99.90;;;;;;4976934;28;20558;-75
2021/03/02 09:22:10;;;;;;;23.17;21.25;;;9.30;99.90;;;;;;4990183;28;20042;-76
2021/03/02 09:24:48;;;;;;;21.83;20.10;;;9.50;99.90;;;;;;5006609;28;20498;-76
2021/03/02 09:27:18;;;;;;;21.38;19.67;;;9.80;99.90;;;;;;5006687;28;20054;-77
2021/03/02 09:29:49;;;;;;;21.95;20.08;;;9.70;99.90;;;;;;4991576;28;20046;-77
2021/03/02 09:32:23;;;;;;;22.20;20.50;;;9.80;99.90;;;;;;4987801;28;20054;-76
2021/03/02 09:34:54;;;;;;;23.45;21.58;;;9.90;99.90;;;;;;4987616;28;20113;-76
2021/03/02 09:37:21;;;;;;;20.05;18.73;;;10.10;99.90;;;;;;4986062;28;20050;-77
2021/03/02 09:40:00;;;;;;;21.92;20.20;;;10.10;99.90;;;;;;4969187;28;20934;-75
2021/03/02 09:42:28;;;;;;;22.20;20.60;;;10.30;99.90;;;;;;4970189;28;20042;-76
2021/03/02 09:44:57;;;;;;;22.45;20.67;;;10.70;99.90;;;;;;4987264;28;20054;-81
2021/03/02 09:47:31;;;;;;;21.17;19.40;;;10.90;99.90;;;;;;4986409;28;20050;-75
2021/03/02 09:50:01;;;;;;;20.50;19.00;;;11.00;99.90;;;;;;4970990;28;20161;-75
2021/03/02 09:52:44;;;;;;;20.90;19.35;;;11.30;99.90;;;;;;4985879;28;20110;-75
2021/03/02 09:55:15;;;;;;;20.30;18.65;;;11.50;99.90;;;;;;4970041;28;20054;-75
2021/03/02 09:57:59;;;;;;;;;;;11.30;99.90;;;;;;4971164;28;20049;-76
2021/03/02 10:00:28;;;;;;;21.15;19.67;;;11.40;99.90;;;;;;4970304;28;19926;-76
2021/03/02 10:02:58;;;;;;;22.42;20.70;;;11.50;99.90;;;;;;4968108;28;20058;-77
2021/03/02 10:05:32;;;;;;;22.55;20.75;;;11.50;99.90;;;;;;4985072;28;21596;-76
2021/03/02 10:07:59;;;;;;;22.08;20.25;;;11.40;99.90;;;;;;4970776;28;20042;-76
2021/03/02 10:10:36;;;;;;;22.10;20.10;;;11.20;99.90;;;;;;4990244;28;20046;-76
2021/03/02 10:13:03;;;;;;;21.80;19.88;;;11.10;99.90;;;;;;4969475;28;20525;-74
2021/03/02 10:15:29;;;;;;;21.42;19.63;;;11.10;99.90;;;;;;4969545;28;20050;-74
2021/03/02 10:17:55;;;;;;;21.08;19.58;;;10.80;99.90;;;;;;4986064;28;20046;-75
2021/03/02 10:20:22;;;;;;;22.05;20.00;;;10.80;99.90;;;;;;4969040;28;20574;-74
2021/03/02 10:23:01;;;;;;;21.50;19.80;;;10.80;99.90;;;;;;4969104;28;20077;-75
2021/03/02 10:25:43;;;;;;;19.90;18.50;;;10.90;99.90;;;;;;4985041;28;20049;-75
2021/03/02 10:28:09;;;;;;;21.88;19.98;;;11.00;99.90;;;;;;4969958;28;20507;-75
2021/03/02 10:30:36;;;;;;;20.73;19.20;;;11.10;99.90;;;;;;5002428;28;20045;-76
2021/03/02 10:33:02;;;;;;;21.38;19.85;;;11.40;99.90;;;;;;4985055;28;20053;-75
2021/03/02 10:35:29;;;;;;;21.88;20.05;;;11.70;99.90;;;;;;4984240;28;20046;-77
2021/03/02 10:37:55;;;;;;;22.10;20.25;;;11.60;99.90;;;;;;4970682;28;20061;-75
2021/03/02 10:40:21;;;;;;;22.80;20.88;;;11.50;99.90;;;;;;4978259;28;20053;-75
2021/03/02 10:42:48;;;;;;;20.70;19.05;;;11.30;99.90;;;;;;4985350;28;20061;-75
2021/03/02 10:45:14;;;;;;;21.88;20.17;;;11.20;99.90;;;;;;4985287;28;20047;-76
2021/03/02 10:47:40;;;;;;;21.38;19.67;;;11.30;99.90;;;;;;4969473;28;20077;-75
2021/03/02 10:50:11;;;;;;;22.02;20.00;;;11.20;99.90;;;;;;4985067;28;20062;-75
2021/03/02 10:52:38;;;;;;;21.50;19.67;;;11.40;99.90;;;;;;4985546;28;20065;-74
2021/03/02 10:55:05;;;;;;;22.13;20.38;;;11.50;99.90;;;;;;4985668;28;20613;-74
2021/03/02 10:57:31;;;;;;;21.65;19.95;;;11.50;99.90;;;;;;4985963;28;20050;-76
2021/03/02 10:59:57;;;;;;;22.42;20.52;;;11.50;99.90;;;;;;5001025;28;20046;-75
2021/03/02 11:02:24;;;;;;;20.75;19.10;;;11.20;99.90;;;;;;4968365;28;20046;-74
2021/03/02 11:04:50;;;;;;;21.67;19.60;;;11.30;99.90;;;;;;4967958;28;20601;-73
2021/03/02 11:07:16;;;;;;;20.25;18.77;;;11.30;99.90;;;;;;4984358;28;20050;-74
2021/03/02 11:09:42;;;;;;;20.27;18.67;;;11.40;99.90;;;;;;4986603;28;20419;-74
2021/03/02 11:12:09;;;;;;;20.83;18.83;;;11.50;99.90;;;;;;4984916;28;20048;-75
2021/03/02 11:14:35;;;;;;;19.77;18.30;;;11.70;99.90;;;;;;4982506;28;20431;-73
2021/03/02 11:17:02;;;;;;;21.27;19.67;;;11.70;99.90;;;;;;4974892;28;20050;-73
2021/03/02 11:19:28;;;;;;;20.65;19.00;;;11.80;99.90;;;;;;4983991;28;20169;-74
2021/03/02 11:21:55;;;;;;;21.10;19.50;;;11.40;99.90;;;;;;4984766;28;20065;-74
2021/03/02 11:24:21;;;;;;;21.65;19.95;;;11.40;99.90;;;;;;4986586;28;20491;-74
2021/03/02 11:26:48;;;;;;;21.15;19.50;;;11.60;99.90;;;;;;4968432;28;20053;-74
2021/03/02 11:29:15;;;;;;;20.33;18.73;;;11.80;99.90;;;;;;4985478;28;20050;-73
2021/03/02 11:31:41;;;;;;;20.63;19.17;;;11.90;99.90;;;;;;4968467;28;20418;-73
2021/03/02 11:34:08;;;;;;;22.60;20.80;;;11.60;99.90;;;;;;4983802;28;20046;-73
2021/03/02 11:36:34;;;;;;;20.10;18.52;;;11.50;99.90;;;;;;4984879;28;20054;-74
2021/03/02 11:39:01;;;;;;;21.05;19.35;;;11.70;99.90;;;;;;4984646;28;20076;-75
2021/03/02 11:41:27;;;;;;;22.17;20.45;;;11.60;99.90;;;;;;4983142;28;20574;-75
2021/03/02 11:43:53;;;;;;;21.52;20.00;;;11.50;99.90;;;;;;4983520;28;20042;-75
2021/03/02 11:46:20;;;;;;;20.60;19.00;;;11.30;99.90;;;;;;4985323;28;20042;-74
2021/03/02 11:48:46;;;;;;;20.77;19.10;;;11.40;99.90;;;;;;4972810;28;20580;-74
2021/03/02 11:51:12;;;;;;;19.95;18.25;;;11.50;99.90;;;;;;4967762;28;20054;-74
2021/03/02 11:53:38;;;;;;;19.75;18.10;;;11.60;99.90;;;;;;4972937;28;20034;-73
2021/03/02 11:56:05;;;;;;;19.92;18.23;;;11.50;99.90;;;;;;4993438;28;20050;-73
2021/03/02 11:58:31;;;;;;;19.52;18.08;;;11.60;99.90;;;;;;4986050;28;20499;-74
2021/03/02 12:00:57;;;;;;;18.23;16.58;;;11.70;99.90;;;;;;4984714;28;20065;-73
2021/03/02 12:03:25;;;;;;;18.90;17.42;;;11.90;99.90;;;;;;4952608;28;20058;-75
2021/03/02 12:05:51;;;;;;;19.02;17.40;;;12.30;99.90;;;;;;4967347;28;20054;-73
2021/03/02 12:08:19;;;;;;;19.17;17.77;;;12.20;99.90;;;;;;4983404;28;20419;-74
2021/03/02 12:10:46;;;;;;;17.92;16.83;;;12.20;99.90;;;;;;4975313;28;20074;-74
2021/03/02 12:13:13;;;;;;;19.10;17.48;;;12.10;99.90;;;;;;5003345;28;20699;-75
2021/03/02 12:15:41;;;;;;;18.08;16.90;;;12.10;99.90;;;;;;4987642;28;20652;-75
2021/03/02 12:18:07;;;;;;;17.05;16.02;;;12.40;99.90;;;;;;4988434;28;20058;-74
2021/03/02 12:20:34;;;;;;;17.80;16.40;;;12.70;99.90;;;;;;5005914;28;20066;-74
2021/03/02 12:23:00;;;;;;;17.05;16.08;;;12.60;99.90;;;;;;4994831;28;20431;-77
2021/03/02 12:25:27;;;;;;;17.88;16.45;;;12.70;99.90;;;;;;4988353;28;20048;-75
2021/03/02 12:27:53;;;;;;;17.10;15.85;;;12.90;99.90;;;;;;4978411;28;20066;-74
2021/03/02 12:30:20;;;;;;;18.45;17.10;;;12.60;99.90;;;;;;4987905;28;20050;-77
2021/03/02 12:32:46;;;;;;;17.25;16.02;;;12.60;99.90;;;;;;4987720;28;20058;-76
2021/03/02 12:35:13;;;;;;;17.52;16.42;;;12.80;99.90;;;;;;4970675;28;20057;-77
2021/03/02 12:37:39;;;;;;;17.92;16.48;;;12.80;99.90;;;;;;4994183;28;20050;-76
2021/03/02 12:40:07;;;;;;;18.55;17.33;;;12.70;99.90;;;;;;4997300;28;20046;-76
2021/03/02 12:42:33;;;;;;;17.08;16.08;;;12.50;99.90;;;;;;4955047;28;20094;-77
2021/03/02 12:45:00;;;;;;;18.23;17.23;;;12.70;99.90;;;;;;4971939;28;20042;-76
2021/03/02 12:47:26;;;;;;;18.10;16.85;;;13.00;99.90;;;;;;4989675;28;20058;-76